Time;durP1;ratioP1;P1;durP2;ratioP2;P2;SDS_P1;SDS_P2;PMS_P1;PMS_P2;Temp;Humidity;BMP_temperature;BMP_pressure;BME280_temperature;BME280_humidity;BME280_pressure;Samples;Min_cycle;Max_cycle;Signal;HPM_P1;HPM_P2
2022/01/21 00:00:50;;;;;;;;;;;1.50;99.80;;;;;;4980299;28;19909;-89
2022/01/21 00:03:16;;;;;;;;;;;1.60;99.80;;;;;;4980278;28;20015;-89
2022/01/21 00:05:41;;;;;;;;;;;1.60;99.70;;;;;;4980459;28;19909;-89
2022/01/21 00:08:07;;;;;;;;;;;1.60;99.70;;;;;;4979611;28;19976;-89
2022/01/21 00:10:33;;;;;;;;;;;1.60;99.70;;;;;;4980310;28;20361;-90
2022/01/21 00:12:58;;;;;;;;;;;1.60;99.70;;;;;;4980236;28;19917;-89
2022/01/21 00:15:24;;;;;;;;;;;1.60;99.80;;;;;;4979864;28;19926;-90
2022/01/21 00:17:49;;;;;;;;;;;1.60;99.80;;;;;;4979671;28;19922;-89
2022/01/21 00:31:15;;;;;;;;;;;1.70;99.90;;;;;;4997644;28;20008;-89
2022/01/21 00:33:41;;;;;;;;;;;1.70;99.80;;;;;;4979642;28;19910;-89
2022/01/21 00:36:06;;;;;;;;;;;1.70;99.90;;;;;;4979941;28;19914;-89
2022/01/21 00:38:32;;;;;;;;;;;1.80;99.70;;;;;;4997013;28;19981;-89
2022/01/21 00:41:02;;;;;;;;;;;1.70;99.90;;;;;;4979556;28;19953;-90
2022/01/21 00:43:32;;;;;;;;;;;1.70;99.70;;;;;;4980077;28;20349;-89
2022/01/21 00:45:59;;;;;;;;;;;1.70;99.90;;;;;;4979571;28;20372;-89
2022/01/21 00:48:24;;;;;;;;;;;1.60;99.90;;;;;;4979455;28;20004;-89
2022/01/21 00:50:50;;;;;;;;;;;1.60;99.90;;;;;;4996775;28;19949;-89
2022/01/21 00:53:15;;;;;;;;;;;1.60;99.90;;;;;;4979266;28;19909;-89
2022/01/21 00:55:41;;;;;;;;;;;1.50;99.90;;;;;;4980031;28;19910;-89
2022/01/21 00:58:06;;;;;;;;;;;1.50;99.90;;;;;;4979104;28;19914;-89
2022/01/21 01:00:32;;;;;;;;;;;1.50;99.90;;;;;;4996635;28;19913;-89
2022/01/21 01:02:59;;;;;;;;;;;1.50;99.90;;;;;;4979251;28;19946;-90
2022/01/21 01:05:25;;;;;;;;;;;1.50;99.90;;;;;;4996879;28;20353;-90
2022/01/21 01:07:51;;;;;;;;;;;1.50;99.90;;;;;;4996166;28;20014;-89
2022/01/21 01:10:24;;;;;;;;;;;1.40;99.90;;;;;;4979148;28;19956;-89
2022/01/21 01:19:52;;;;;;;;;;;1.40;99.90;;;;;;4979000;28;19964;-89
2022/01/21 01:21:12;;;;;;;;;;;1.40;99.90;;;;;;4996646;28;19921;-89
2022/01/21 01:23:51;;;;;;;;;;;1.50;99.90;;;;;;4978840;28;19910;-89
2022/01/21 01:29:00;;;;;;;;;;;1.40;99.90;;;;;;4997065;28;20392;-90
2022/01/21 01:31:26;;;;;;;;;;;1.40;99.90;;;;;;4981916;28;19910;-89
2022/01/21 01:33:52;;;;;;;;;;;1.40;99.90;;;;;;4982564;28;19910;-90
2022/01/21 01:36:20;;;;;;;;;;;1.40;99.90;;;;;;4980337;28;19915;-89
2022/01/21 01:41:26;;;;;;;;;;;1.30;99.90;;;;;;4995921;28;19914;-90
2022/01/21 01:49:38;;;;;;;;;;;1.40;99.90;;;;;;4995937;28;19920;-90
2022/01/21 01:52:08;;;;;;;;;;;1.40;99.90;;;;;;4978982;28;20040;-90
2022/01/21 01:54:35;;;;;;;;;;;1.40;99.90;;;;;;4978284;28;19917;-89
2022/01/21 01:57:00;;;;;;;;;;;1.50;99.90;;;;;;4978108;28;19952;-90
2022/01/21 01:59:26;;;;;;;;;;;1.50;99.90;;;;;;4978781;28;20353;-89
2022/01/21 02:01:57;;;;;;;;;;;1.50;99.90;;;;;;4978242;28;19914;-89
2022/01/21 02:04:23;;;;;;;;;;;1.50;99.90;;;;;;4978401;28;19916;-90
2022/01/21 02:06:49;;;;;;;;;;;1.50;99.90;;;;;;4978717;28;19909;-89
2022/01/21 02:09:15;;;;;;;;;;;1.50;99.80;;;;;;4978134;28;19976;-89
2022/01/21 02:11:40;;;;;;;;;;;1.50;99.40;;;;;;4978131;28;19916;-90
2022/01/21 02:14:09;;;;;;;;;;;1.40;97.50;;;;;;4977958;28;19919;-89
2022/01/21 02:16:54;;;;;;;;;;;1.40;96.60;;;;;;4978182;28;19922;-90
2022/01/21 02:22:04;;;;;;;;;;;1.20;96.60;;;;;;4995677;28;19920;-89
2022/01/21 02:24:44;;;;;;;;;;;1.20;95.20;;;;;;4978452;28;19913;-89
2022/01/21 02:27:10;;;;;;;;;;;1.10;94.10;;;;;;4978433;28;19914;-89
2022/01/21 02:29:44;;;;;;;;;;;1.00;93.60;;;;;;4995381;28;20345;-89
2022/01/21 02:32:10;;;;;;;;;;;0.90;93.80;;;;;;4982415;28;19920;-89
2022/01/21 02:34:36;;;;;;;;;;;0.80;91.70;;;;;;4981914;28;20277;-90
2022/01/21 02:37:02;;;;;;;;;;;0.80;93.10;;;;;;4982007;28;19956;-89
2022/01/21 02:39:27;;;;;;;;;;;0.70;93.20;;;;;;4981473;28;19921;-90
2022/01/21 02:41:53;;;;;;;;;;;0.70;92.50;;;;;;4981792;28;19913;-89
2022/01/21 02:44:19;;;;;;;;;;;0.70;91.70;;;;;;4981737;28;19933;-90
2022/01/21 02:46:45;;;;;;;;;;;0.60;91.60;;;;;;4982483;28;19916;-90
2022/01/21 02:49:11;;;;;;;;;;;0.60;91.30;;;;;;4981630;28;20384;-90
2022/01/21 02:51:37;;;;;;;;;;;0.50;91.40;;;;;;4981725;28;20424;-90
2022/01/21 02:54:05;;;;;;;;;;;0.60;91.80;;;;;;4981986;28;19964;-90
2022/01/21 02:56:35;;;;;;;;;;;0.50;90.50;;;;;;4981559;28;19917;-90
2022/01/21 02:59:01;;;;;;;;;;;0.40;90.60;;;;;;4981108;28;20000;-89
2022/01/21 03:01:27;;;;;;;;;;;0.40;91.70;;;;;;4982166;28;19949;-90
2022/01/21 03:03:53;;;;;;;;;;;0.40;91.70;;;;;;4981394;28;19909;-90
2022/01/21 03:06:20;;;;;;;;;;;0.30;91.00;;;;;;4981415;28;19910;-89
2022/01/21 03:08:46;;;;;;;;;;;0.30;91.50;;;;;;4981466;28;19917;-89
2022/01/21 03:11:12;;;;;;;;;;;0.30;91.00;;;;;;4981967;28;19910;-90
2022/01/21 03:13:41;;;;;;;;;;;0.30;91.00;;;;;;4981400;28;19977;-89
2022/01/21 03:16:07;;;;;;;;;;;0.20;91.10;;;;;;4981744;28;20255;-90
2022/01/21 03:18:32;;;;;;;;;;;0.20;91.50;;;;;;4981691;28;19914;-90
2022/01/21 03:20:58;;;;;;;;;;;0.20;92.00;;;;;;4981255;28;19914;-89
2022/01/21 03:23:26;;;;;;;;;;;0.20;91.50;;;;;;4981162;28;19910;-90
2022/01/21 03:25:52;;;;;;;;;;;0.20;91.70;;;;;;4998846;28;19917;-90
2022/01/21 03:28:17;;;;;;;;;;;0.20;90.80;;;;;;4981606;28;19910;-90
2022/01/21 03:30:43;;;;;;;;;;;0.20;91.20;;;;;;4998468;28;20353;-89
2022/01/21 03:33:09;;;;;;;;;;;0.20;91.20;;;;;;4981631;28;20380;-89
2022/01/21 03:35:35;;;;;;;;;;;0.20;91.90;;;;;;4981002;28;19910;-90
2022/01/21 03:38:00;;;;;;;;;;;0.20;91.40;;;;;;4981922;28;20348;-90
2022/01/21 03:40:26;;;;;;;;;;;0.20;91.30;;;;;;4991482;28;19914;-89
2022/01/21 03:42:51;;;;;;;;;;;0.20;91.00;;;;;;4990885;28;19961;-89
2022/01/21 03:45:17;;;;;;;;;;;0.20;91.40;;;;;;4991903;28;20321;-89
2022/01/21 03:47:43;;;;;;;;;;;0.10;90.60;;;;;;4983942;28;19910;-89
2022/01/21 03:50:31;;;;;;;;;;;0.10;91.20;;;;;;4981283;28;19917;-89
2022/01/21 03:52:57;;;;;;;;;;;0.10;91.40;;;;;;4981324;28;19910;-90
2022/01/21 03:55:23;;;;;;;;;;;0.10;91.50;;;;;;4981034;28;19925;-90
2022/01/21 03:57:49;;;;;;;;;;;0.00;91.20;;;;;;4980802;28;19914;-89
2022/01/21 04:00:17;;;;;;;;;;;0.00;91.50;;;;;;4980451;28;19918;-90
2022/01/21 04:02:43;;;;;;;;;;;-0.10;91.20;;;;;;4980430;28;19917;-89
2022/01/21 04:05:09;;;;;;;;;;;-0.10;91.10;;;;;;4980796;28;20289;-90
2022/01/21 04:07:34;;;;;;;;;;;-0.20;91.30;;;;;;4997444;28;19917;-90
2022/01/21 04:10:00;;;;;;;;;;;-0.20;91.50;;;;;;4980612;28;19957;-89
2022/01/21 04:12:25;;;;;;;;;;;-0.20;91.50;;;;;;4980271;28;20017;-89
2022/01/21 04:14:51;;;;;;;;;;;-0.30;91.00;;;;;;4979976;28;20377;-89
2022/01/21 04:17:18;;;;;;;;;;;-0.30;91.20;;;;;;4980849;28;20254;-90
2022/01/21 04:19:43;;;;;;;;;;;-0.30;90.90;;;;;;4979790;28;19920;-89
2022/01/21 04:22:09;;;;;;;;;;;-0.30;91.50;;;;;;4980272;28;19918;-89
2022/01/21 04:24:36;;;;;;;;;;;-0.30;91.30;;;;;;4979830;28;20277;-89
2022/01/21 04:27:02;;;;;;;;;;;-0.30;91.40;;;;;;4979882;28;19917;-89
2022/01/21 04:29:27;;;;;;;;;;;-0.40;91.20;;;;;;4980045;28;19913;-90
2022/01/21 04:31:53;;;;;;;;;;;-0.40;91.40;;;;;;4979867;28;20004;-89
2022/01/21 04:34:19;;;;;;;;;;;-0.40;90.40;;;;;;4979876;28;19917;-89
2022/01/21 04:36:44;;;;;;;;;;;-0.50;90.90;;;;;;4979966;28;19998;-90
2022/01/21 04:39:17;;;;;;;;;;;-0.50;90.70;;;;;;4980266;28;19918;-89
2022/01/21 04:49:39;;;;;;;;;;;-0.70;90.30;;;;;;4997198;28;20003;-89
2022/01/21 04:52:05;;;;;;;;;;;-0.70;90.20;;;;;;4979618;28;19910;-89
2022/01/21 04:54:32;;;;;;;;;;;-0.80;90.30;;;;;;4979240;28;19910;-90
2022/01/21 04:56:58;;;;;;;;;;;-0.80;90.30;;;;;;4979384;28;20345;-90
2022/01/21 04:59:23;;;;;;;;;;;-0.90;90.30;;;;;;4979918;28;19929;-89
2022/01/21 05:01:49;;;;;;;;;;;-0.90;90.00;;;;;;4979374;28;19918;-90
2022/01/21 05:04:14;;;;;;;;;;;-0.90;90.20;;;;;;4980080;28;20349;-89
2022/01/21 05:06:41;;;;;;;;;;;-1.00;90.00;;;;;;4979258;28;19956;-89
2022/01/21 05:09:06;;;;;;;;;;;-1.00;89.00;;;;;;4979169;28;19909;-89
2022/01/21 05:11:37;;;;;;;;;;;-1.00;88.80;;;;;;4978975;28;19917;-89
2022/01/21 05:17:03;;;;;;;;;;;-1.10;88.20;;;;;;4966419;28;19922;-90
2022/01/21 05:19:28;;;;;;;;;;;-1.10;87.30;;;;;;4978724;28;19951;-89
2022/01/21 05:21:54;;;;;;;;;;;-1.20;88.10;;;;;;4979456;28;19914;-89
2022/01/21 05:24:20;;;;;;;;;;;-1.20;87.90;;;;;;4979178;28;19914;-90
2022/01/21 05:26:53;;;;;;;;;;;-1.20;87.70;;;;;;4979077;28;19909;-89
2022/01/21 05:29:20;;;;;;;;;;;-1.30;87.50;;;;;;4978978;28;20004;-89
2022/01/21 05:31:46;;;;;;;;;;;-1.30;88.30;;;;;;4978831;28;19914;-89
2022/01/21 05:34:12;;;;;;;;;;;-1.30;87.80;;;;;;4979252;28;20293;-89
2022/01/21 05:36:40;;;;;;;;;;;-1.40;88.00;;;;;;4978825;28;19910;-89
2022/01/21 05:39:13;;;;;;;;;;;-1.30;87.00;;;;;;4979019;28;20408;-90
2022/01/21 05:41:39;;;;;;;;;;;-1.40;87.30;;;;;;4978423;28;20369;-89
2022/01/21 05:44:14;;;;;;;;;;;-1.40;88.10;;;;;;4978568;28;19920;-90
2022/01/21 05:49:06;;;;;;;;;;;-1.40;87.30;;;;;;4996079;28;19979;-89
2022/01/21 05:51:32;;;;;;;;;;;-1.40;87.10;;;;;;4979604;28;19964;-91
2022/01/21 05:53:57;;;;;;;;;;;-1.40;87.20;;;;;;4977881;28;20009;-90
2022/01/21 05:56:25;;;;;;;;;;;-1.40;87.60;;;;;;4978573;28;19910;-90
2022/01/21 05:58:50;;;;;;;;;;;-1.40;87.30;;;;;;4978175;28;19969;-90
2022/01/21 06:01:16;;;;;;;;;;;-1.50;87.20;;;;;;4978388;28;19922;-90
2022/01/21 06:03:42;;;;;;;;;;;-1.50;87.20;;;;;;4978534;28;19917;-90
2022/01/21 06:06:08;;;;;;;;;;;-1.50;87.20;;;;;;4977269;28;19921;-88
2022/01/21 06:08:34;;;;;;;;;;;-1.50;87.80;;;;;;4978098;28;19972;-90
2022/01/21 06:10:59;;;;;;;;;;;-1.50;87.90;;;;;;4977581;28;19952;-88
2022/01/21 06:13:25;;;;;;;;;;;-1.50;87.90;;;;;;4978062;28;20345;-88
2022/01/21 06:15:50;;;;;;;;;;;-1.50;88.30;;;;;;4977815;28;19937;-89
2022/01/21 06:18:16;;;;;;;;;;;-1.50;88.80;;;;;;4977669;28;19937;-89
2022/01/21 06:20:42;;;;;;;;;;;-1.50;89.10;;;;;;4977989;28;20000;-89
2022/01/21 06:23:08;;;;;;;;;;;-1.50;89.10;;;;;;4995191;28;19997;-89
2022/01/21 06:25:33;;;;;;;;;;;-1.40;87.50;;;;;;4978352;28;19949;-90
2022/01/21 06:27:59;;;;;;;;;;;-1.40;87.60;;;;;;4978319;28;19917;-89
2022/01/21 06:30:25;;;;;;;;;;;-1.30;88.10;;;;;;4978181;28;19910;-89
2022/01/21 06:32:50;;;;;;;;;;;-1.30;88.10;;;;;;4978764;28;20048;-89
2022/01/21 06:35:16;;;;;;;;;;;-1.20;86.70;;;;;;4978990;28;20233;-89
2022/01/21 06:37:42;;;;;;;;;;;-1.10;86.80;;;;;;4977581;28;19910;-90
2022/01/21 06:40:08;;;;;;;;;;;-1.00;88.10;;;;;;4977468;28;20292;-90
2022/01/21 06:42:34;;;;;;;;;;;-1.00;86.80;;;;;;4977772;28;19910;-89
2022/01/21 06:45:01;;;;;;;;;;;-0.90;86.90;;;;;;4977742;28;19965;-90
2022/01/21 06:47:27;;;;;;;;;;;-0.80;86.60;;;;;;4978251;28;19910;-89
2022/01/21 06:49:54;;;;;;;;;;;-0.80;85.80;;;;;;4977145;28;20057;-89
2022/01/21 06:52:21;;;;;;;;;;;-0.70;86.00;;;;;;4977206;28;20305;-90
2022/01/21 06:54:50;;;;;;;;;;;-0.60;86.90;;;;;;4978015;28;19910;-89
2022/01/21 06:57:18;;;;;;;;;;;-0.50;83.70;;;;;;4977490;28;19914;-90
2022/01/21 06:59:44;;;;;;;;;;;-0.40;83.50;;;;;;4994605;28;19961;-91
2022/01/21 07:02:09;;;;;;;;;;;-0.40;84.20;;;;;;4977230;28;19925;-90
2022/01/21 07:04:35;;;;;;;;;;;-0.30;84.50;;;;;;4978013;28;19913;-90
2022/01/21 07:07:01;;;;;;;;;;;-0.30;83.80;;;;;;4978001;28;19937;-90
2022/01/21 07:09:27;;;;;;;;;;;-0.20;82.80;;;;;;4994477;28;19916;-90
2022/01/21 07:11:53;;;;;;;;;;;-0.10;84.30;;;;;;4978623;28;20259;-89
2022/01/21 07:14:19;;;;;;;;;;;-0.10;83.00;;;;;;4977084;28;19910;-90
2022/01/21 07:16:45;;;;;;;;;;;0.00;83.50;;;;;;4978794;28;19910;-90
2022/01/21 07:19:10;;;;;;;;;;;0.00;84.00;;;;;;4980443;28;20265;-92
2022/01/21 07:21:36;;;;;;;;;;;0.00;81.50;;;;;;4980816;28;19914;-90
2022/01/21 07:24:02;;;;;;;;;;;0.10;82.50;;;;;;4980973;28;20016;-89
2022/01/21 07:26:27;;;;;;;;;;;0.20;82.50;;;;;;4980405;28;20348;-90
2022/01/21 07:28:53;;;;;;;;;;;0.30;82.30;;;;;;4981988;28;19910;-89
2022/01/21 07:31:19;;;;;;;;;;;0.40;81.90;;;;;;4986017;28;19924;-90
2022/01/21 07:33:44;;;;;;;;;;;0.50;81.20;;;;;;4984921;28;19917;-89
2022/01/21 07:36:10;;;;;;;;;;;0.60;80.10;;;;;;4988664;28;19914;-89
2022/01/21 07:38:38;;;;;;;;;;;0.70;81.40;;;;;;4992010;28;19914;-91
2022/01/21 07:41:04;;;;;;;;;;;0.70;80.20;;;;;;4992799;28;19914;-90
2022/01/21 07:43:29;;;;;;;;;;;0.80;78.60;;;;;;4984608;28;19922;-90
2022/01/21 07:45:55;;;;;;;;;;;0.70;79.10;;;;;;4981354;28;19965;-89
2022/01/21 07:48:21;;;;;;;;;;;0.70;79.60;;;;;;4980426;28;19933;-89
2022/01/21 07:50:49;;;;;;;;;;;0.70;79.90;;;;;;4965793;28;20013;-89
2022/01/21 07:53:14;;;;;;;;;;;0.70;79.50;;;;;;4980198;28;19916;-89
2022/01/21 07:55:40;;;;;;;;;;;0.70;79.50;;;;;;4997405;28;20348;-89
2022/01/21 07:58:06;;;;;;;;;;;0.70;79.80;;;;;;4980371;28;19914;-89
2022/01/21 08:00:32;;;;;;;;;;;0.70;78.00;;;;;;4980858;28;19918;-90
2022/01/21 08:02:58;;;;;;;;;;;0.70;79.20;;;;;;4982804;28;20241;-92
2022/01/21 08:08:39;;;;;;;;;;;0.70;79.50;;;;;;5002097;28;19917;-92
2022/01/21 08:14:13;;;;;;;;;;;0.80;76.80;;;;;;5002561;28;20296;-93
2022/01/21 08:23:39;;;;;;;;;;;0.60;76.70;;;;;;5003801;28;19956;-92
2022/01/21 08:26:32;;;;;;;;;;;0.70;76.90;;;;;;5000909;28;20376;-93
2022/01/21 08:32:33;;;;;;;;;;;0.70;75.00;;;;;;5003242;28;19966;-93
2022/01/21 08:45:22;;;;;;;;;;;1.00;75.00;;;;;;4888697;29;19923;-93
2022/01/21 08:47:54;;;;;;;;;;;1.00;74.70;;;;;;4882310;29;20025;-90
2022/01/21 09:56:52;;;;;;;;;;;;;;;;;;;;;
2022/01/21 10:34:06;;;;;;;;;;;1.70;69.90;;;;;;4989214;28;19953;-95
2022/01/21 11:29:21;;;;;;;;;;;;;;;;;;;;;
2022/01/21 16:50:12;;;;;;;;;;;-0.20;86.80;;;;;;4920749;29;20450;-93
2022/01/21 16:52:39;;;;;;;;;;;-0.20;87.50;;;;;;4920463;29;19915;-94
2022/01/21 16:55:33;;;;;;;;;;;-0.20;87.60;;;;;;4920705;29;19922;-94
2022/01/21 16:58:09;;;;;;;;;;;;;;;;;;;;;
2022/01/21 17:07:12;;;;;;;;;;;-0.10;89.30;;;;;;4865772;29;19918;-95
2022/01/21 17:09:59;;;;;;;;;;;-0.10;89.50;;;;;;4887698;29;19916;-94
2022/01/21 17:12:56;;;;;;;;;;;;;;;;;;;;;
2022/01/21 17:15:42;;;;;;;;;;;;;;;;;;;;;
2022/01/21 17:18:34;;;;;;;;;;;;;;;;;;;;;
2022/01/21 17:22:13;;;;;;;;;;;;;;;;;;;;;
2022/01/21 18:24:01;;;;;;;;;;;0.20;89.70;;;;;;5032684;28;19910;-95
2022/01/21 18:26:43;;;;;;;;;;;0.20;89.60;;;;;;5117393;23;19961;-96
2022/01/21 18:29:32;;;;;;;;;;;0.20;89.70;;;;;;5102911;23;19933;-95
2022/01/21 18:32:53;;;;;;;;;;;;;;;;;;;;;
2022/01/21 18:35:43;;;;;;;;;;;0.10;89.80;;;;;;4979921;28;19984;-96
2022/01/21 18:38:34;;;;;;;;;;;;;;;;;;;;;
2022/01/21 18:55:33;;;;;;;;;;;0.20;90.30;;;;;;5019750;28;19956;-95
2022/01/21 19:10:49;;;;;;;;;;;0.30;91.00;;;;;;5091416;23;19976;-96
2022/01/21 19:32:34;;;;;;;;;;;0.10;93.30;;;;;;5024095;28;19929;-93
2022/01/21 19:35:08;;;;;;;;;;;0.10;94.30;;;;;;5005606;28;19937;-94
2022/01/21 19:37:37;;;;;;;;;;;0.10;94.10;;;;;;5014836;28;19982;-94
2022/01/21 19:40:34;;;;;;;;;;;0.10;94.40;;;;;;5013052;28;20443;-94
2022/01/21 19:43:15;;;;;;;;;;;0.00;94.70;;;;;;5028342;28;19910;-94
2022/01/21 19:48:45;;;;;;;;;;;0.00;96.20;;;;;;4989286;28;20300;-94
2022/01/21 19:51:37;;;;;;;;;;;0.00;96.30;;;;;;5012784;28;19920;-94
2022/01/21 19:54:06;;;;;;;;;;;-0.10;96.40;;;;;;4999460;28;19909;-93
2022/01/21 19:59:54;;;;;;;;;;;-0.10;96.60;;;;;;5024645;28;19964;-94
2022/01/21 20:10:55;;;;;;;;;;;-0.10;96.80;;;;;;5029125;28;19973;-94
2022/01/21 20:13:24;;;;;;;;;;;-0.10;96.50;;;;;;5027999;28;19910;-95
2022/01/21 20:16:13;;;;;;;;;;;-0.10;96.30;;;;;;5011607;28;19910;-94
2022/01/21 20:18:47;;;;;;;;;;;-0.10;96.20;;;;;;5013400;28;19932;-93
2022/01/21 20:21:24;;;;;;;;;;;-0.10;96.00;;;;;;4995992;28;19917;-94
2022/01/21 20:23:58;;;;;;;;;;;0.00;96.00;;;;;;5010296;28;19909;-94
2022/01/21 20:26:42;;;;;;;;;;;;;;;;;;;;;
2022/01/21 20:29:11;;;;;;;;;;;0.00;96.00;;;;;;5030397;28;20005;-93
2022/01/21 20:31:45;;;;;;;;;;;0.00;95.60;;;;;;5008217;28;19982;-94
2022/01/21 20:34:39;;;;;;;;;;;0.10;95.40;;;;;;5010177;28;19918;-93
2022/01/21 20:37:22;;;;;;;;;;;0.00;95.20;;;;;;5011282;28;19977;-93
2022/01/21 20:40:16;;;;;;;;;;;0.00;94.80;;;;;;5010908;28;19960;-93
2022/01/21 20:43:00;;;;;;;;;;;0.10;94.80;;;;;;5010865;28;19916;-94
2022/01/21 20:45:30;;;;;;;;;;;0.10;94.50;;;;;;5013712;28;19914;-94
2022/01/21 20:51:17;;;;;;;;;;;0.20;94.00;;;;;;4968919;29;19914;-93
2022/01/21 20:53:57;;;;;;;;;;;0.20;94.10;;;;;;4954821;29;19950;-94
2022/01/21 20:56:25;;;;;;;;;;;0.20;93.80;;;;;;4950063;29;19926;-93
2022/01/21 20:59:03;;;;;;;;;;;0.20;93.40;;;;;;4968795;29;19995;-94
2022/01/21 21:01:29;;;;;;;;;;;0.20;93.70;;;;;;4992567;28;19977;-95
2022/01/21 21:04:16;;;;;;;;;;;0.20;93.40;;;;;;5008179;28;20415;-94
2022/01/21 21:07:07;;;;;;;;;;;0.20;93.30;;;;;;5011278;28;19910;-93
2022/01/21 21:09:33;;;;;;;;;;;0.20;93.30;;;;;;5007270;28;19941;-94
2022/01/21 21:12:00;;;;;;;;;;;0.20;93.20;;;;;;5008186;28;19910;-94
2022/01/21 21:14:44;;;;;;;;;;;0.20;93.20;;;;;;5007314;28;19941;-94
2022/01/21 21:25:13;;;;;;;;;;;0.20;93.10;;;;;;5006330;28;20297;-94
2022/01/21 21:28:22;;;;;;;;;;;0.20;93.00;;;;;;5008109;28;20348;-92
2022/01/21 22:24:49;;;;;;;;;;;0.20;91.70;;;;;;5023990;28;20375;-94
2022/01/21 23:00:18;;;;;;;;;;;-0.20;92.20;;;;;;5026526;28;20448;-94
2022/01/21 23:02:53;;;;;;;;;;;-0.20;92.30;;;;;;5011503;28;20369;-94
2022/01/21 23:05:24;;;;;;;;;;;-0.10;92.50;;;;;;5013161;28;19932;-93
2022/01/21 23:07:59;;;;;;;;;;;-0.10;92.30;;;;;;5009097;28;19916;-93
2022/01/21 23:10:57;;;;;;;;;;;-0.10;92.20;;;;;;5013350;28;19914;-94
2022/01/21 23:13:33;;;;;;;;;;;;;;;;;;;;;
2022/01/21 23:16:01;;;;;;;;;;;0.00;91.90;;;;;;5030465;28;19937;-93
2022/01/21 23:18:29;;;;;;;;;;;0.10;91.80;;;;;;5011154;28;19910;-93
2022/01/21 23:21:02;;;;;;;;;;;0.10;91.70;;;;;;5010358;28;19977;-94
2022/01/21 23:24:07;;;;;;;;;;;0.10;91.70;;;;;;5009143;28;19910;-93
2022/01/21 23:26:35;;;;;;;;;;;0.10;91.40;;;;;;5013958;28;20037;-93
2022/01/21 23:31:48;;;;;;;;;;;0.20;91.30;;;;;;5028495;28;19968;-93
2022/01/21 23:34:25;;;;;;;;;;;;;;;;;;;;;
2022/01/21 23:37:07;;;;;;;;;;;0.20;91.20;;;;;;5036577;28;19945;-93
2022/01/21 23:42:26;;;;;;;;;;;0.20;91.10;;;;;;5031646;28;20281;-93
2022/01/21 23:45:18;;;;;;;;;;;0.20;91.20;;;;;;5031235;28;19917;-93
2022/01/21 23:47:48;;;;;;;;;;;0.20;91.40;;;;;;5009638;28;19960;-94
2022/01/21 23:50:33;;;;;;;;;;;0.20;91.00;;;;;;5016740;28;19956;-93
2022/01/21 23:53:10;;;;;;;;;;;0.20;91.20;;;;;;5012300;28;19909;-94
2022/01/21 23:55:39;;;;;;;;;;;0.20;91.30;;;;;;5008795;28;19964;-94
2022/01/21 23:58:15;;;;;;;;;;;0.20;91.30;;;;;;5007665;28;19914;-94
